Terminal Aerodrome Forecast
Issued by NWS Upton, NY

Current Version | Previous Version | Text Only | Print | Product List | Glossary On
Versions: 1 2 3 4 5 6 7 8 9 10 11 12 13 14 15 16 17 18 19 20 21 22 23 24 25 26 27 28 29 30 31 32
000
FTUS41 KOKX 252152 AAC
TAFLGA
TAF AMD
KLGA 252152Z 2522/2618 17015G22KT P6SM BKN006 BKN015
     FM252300 18014G21KT 4SM -SHRA BR SCT008 BKN015
      TEMPO 2523/2601 23015G30KT 2SM -TSRA BKN008CB
     FM260100 27015G28KT 5SM -SHRA BKN015
     FM260300 29017G25KT P6SM BKN060
     FM260500 30019G30KT P6SM SCT100
     FM261200 28018G29KT P6SM BKN050 BKN250=

USA.gov is the U.S. government's official web portal to all federal, state and local government web resources and services.